<?xml version="1.0" encoding="UTF-8" standalone="no" ?>
<gpx xmlns="http://www.topografix.com/GPX/1/1" xmlns:xsi="http://www.w3.org/2001/XMLSchema-instance" xsi:schemaLocation="http://www.topografix.com/GPX/1/1 http://www.topografix.com/GPX/1/1/gpx.xsd" version="1.1" creator="VisuGPX - https://www.visugpx.com">
  <metadata>
    <name>Boucle : Venelles vers Saint-Marc-Jaumegarde</name>
    <desc><![CDATA[Boucle sans difficultés. Un petit passage qui peut-être un peu technique pour les débutants(car cailloux) sur 3-4 mètres ( passage très court donc pas vraiment contraignant. Ne pas s'empêcher de faire cette boucle à cause de ça).
À noter une belle montée (en DFCI = chemin large) après 3/4km.
Alternance de sentier (single), DFCI et route goudronnée (très peu).
Niveau : Facile
Durée : entre 1h30- 2h
Je conseille cette boucle pour les débutants qui ont déjà 4/5 sorties à leur actif.
Vue sur la face Nord de la Sainte-Victoire.]]></desc>
  </metadata>
  <trk>
    <name><![CDATA[GPX Download: St Marc Circuit à partir de Venelles]]></name>
    <trkseg>
      <trkpt lat="43.59526" lon="5.49291">
        <ele>384.625278</ele>
        <time>2022-02-26T11:33:25.254Z</time>
      </trkpt>
      <trkpt lat="43.5953" lon="5.49291">
        <ele>384.625278</ele>
        <time>2022-02-26T11:33:26.069Z</time>
      </trkpt>
      <trkpt lat="43.59531" lon="5.49261">
        <ele>384.625278</ele>
        <time>2022-02-26T11:33:31.498Z</time>
      </trkpt>
      <trkpt lat="43.59531" lon="5.49257">
        <ele>384.625278</ele>
        <time>2022-02-26T11:33:32.230Z</time>
      </trkpt>
      <trkpt lat="43.59531" lon="5.49253">
        <ele>384.625278</ele>
        <time>2022-02-26T11:33:32.792Z</time>
      </trkpt>
      <trkpt lat="43.59529" lon="5.4925">
        <ele>384.625278</ele>
        <time>2022-02-26T11:33:33.218Z</time>
      </trkpt>
      <trkpt lat="43.59526" lon="5.49234">
        <ele>384.625278</ele>
        <time>2022-02-26T11:33:35.563Z</time>
      </trkpt>
      <trkpt lat="43.59526" lon="5.49218">
        <ele>384.625278</ele>
        <time>2022-02-26T11:33:37.839Z</time>
      </trkpt>
      <trkpt lat="43.59528" lon="5.49209">
        <ele>384.625278</ele>
        <time>2022-02-26T11:33:39.176Z</time>
      </trkpt>
      <trkpt lat="43.59525" lon="5.49206">
        <ele>384.625278</ele>
        <time>2022-02-26T11:33:39.659Z</time>
      </trkpt>
      <trkpt lat="43.59514" lon="5.49206">
        <ele>384.625278</ele>
        <time>2022-02-26T11:33:41.630Z</time>
      </trkpt>
      <trkpt lat="43.59486" lon="5.49227">
        <ele>383.986075</ele>
        <time>2022-02-26T11:33:47.209Z</time>
      </trkpt>
      <trkpt lat="43.59471" lon="5.49249">
        <ele>383.29478</ele>
        <time>2022-02-26T11:33:51.492Z</time>
      </trkpt>
      <trkpt lat="43.59427" lon="5.49372">
        <ele>380.22768</ele>
        <time>2022-02-26T11:34:06.432Z</time>
      </trkpt>
      <trkpt lat="43.59425" lon="5.49383">
        <ele>379.974722</ele>
        <time>2022-02-26T11:34:07.570Z</time>
      </trkpt>
      <trkpt lat="43.59422" lon="5.4939">
        <ele>379.786627</ele>
        <time>2022-02-26T11:34:08.526Z</time>
      </trkpt>
      <trkpt lat="43.5941" lon="5.49392">
        <ele>379.40825</ele>
        <time>2022-02-26T11:34:11.662Z</time>
      </trkpt>
      <trkpt lat="43.594" lon="5.49401">
        <ele>379.0108</ele>
        <time>2022-02-26T11:34:14.564Z</time>
      </trkpt>
      <trkpt lat="43.59376" lon="5.49401">
        <ele>377.390405</ele>
        <time>2022-02-26T11:34:20.587Z</time>
      </trkpt>
      <trkpt lat="43.59371" lon="5.494">
        <ele>377.060049</ele>
        <time>2022-02-26T11:34:21.689Z</time>
      </trkpt>
      <trkpt lat="43.59356" lon="5.49405">
        <ele>376.057319</ele>
        <time>2022-02-26T11:34:25.224Z</time>
      </trkpt>
      <trkpt lat="43.59343" lon="5.4941">
        <ele>375.101706</ele>
        <time>2022-02-26T11:34:28.436Z</time>
      </trkpt>
      <trkpt lat="43.59335" lon="5.49421">
        <ele>374.371585</ele>
        <time>2022-02-26T11:34:30.865Z</time>
      </trkpt>
      <trkpt lat="43.59326" lon="5.49425">
        <ele>373.705205</ele>
        <time>2022-02-26T11:34:33.142Z</time>
      </trkpt>
      <trkpt lat="43.59306" lon="5.4946">
        <ele>371.5708</ele>
        <time>2022-02-26T11:34:40.191Z</time>
      </trkpt>
      <trkpt lat="43.59276" lon="5.49483">
        <ele>369.229487</ele>
        <time>2022-02-26T11:34:47.901Z</time>
      </trkpt>
      <trkpt lat="43.5925" lon="5.49492">
        <ele>367.453758</ele>
        <time>2022-02-26T11:34:53.900Z</time>
      </trkpt>
      <trkpt lat="43.59233" lon="5.49515">
        <ele>365.9492</ele>
        <time>2022-02-26T11:34:59.572Z</time>
      </trkpt>
      <trkpt lat="43.5923" lon="5.49521">
        <ele>365.597901</ele>
        <time>2022-02-26T11:35:00.783Z</time>
      </trkpt>
      <trkpt lat="43.59229" lon="5.49525">
        <ele>365.391058</ele>
        <time>2022-02-26T11:35:01.474Z</time>
      </trkpt>
      <trkpt lat="43.59196" lon="5.49546">
        <ele>363.162395</ele>
        <time>2022-02-26T11:35:09.715Z</time>
      </trkpt>
      <trkpt lat="43.59194" lon="5.49561">
        <ele>362.463673</ele>
        <time>2022-02-26T11:35:12.394Z</time>
      </trkpt>
      <trkpt lat="43.59197" lon="5.49592">
        <ele>361.064515</ele>
        <time>2022-02-26T11:35:17.750Z</time>
      </trkpt>
      <trkpt lat="43.59194" lon="5.49601">
        <ele>360.650793</ele>
        <time>2022-02-26T11:35:19.248Z</time>
      </trkpt>
      <trkpt lat="43.59204" lon="5.49652">
        <ele>358.291314</ele>
        <time>2022-02-26T11:35:28.182Z</time>
      </trkpt>
      <trkpt lat="43.59213" lon="5.49678">
        <ele>357.022784</ele>
        <time>2022-02-26T11:35:33.361Z</time>
      </trkpt>
      <trkpt lat="43.59141" lon="5.49681">
        <ele>353.383625</ele>
        <time>2022-02-26T11:35:50.409Z</time>
      </trkpt>
      <trkpt lat="43.5909" lon="5.49688">
        <ele>350.980189</ele>
        <time>2022-02-26T11:36:03.064Z</time>
      </trkpt>
      <trkpt lat="43.58992" lon="5.49696">
        <ele>346.957951</ele>
        <time>2022-02-26T11:36:26.785Z</time>
      </trkpt>
      <trkpt lat="43.58916" lon="5.49702">
        <ele>345.373174</ele>
        <time>2022-02-26T11:36:46.572Z</time>
      </trkpt>
      <trkpt lat="43.58835" lon="5.49712">
        <ele>343.673608</ele>
        <time>2022-02-26T11:37:11.494Z</time>
      </trkpt>
      <trkpt lat="43.58825" lon="5.49825">
        <ele>343.629982</ele>
        <time>2022-02-26T11:37:39.159Z</time>
      </trkpt>
      <trkpt lat="43.58821" lon="5.49855">
        <ele>343.619073</ele>
        <time>2022-02-26T11:37:46.906Z</time>
      </trkpt>
      <trkpt lat="43.58805" lon="5.49865">
        <ele>343.610344</ele>
        <time>2022-02-26T11:37:52.326Z</time>
      </trkpt>
      <trkpt lat="43.588" lon="5.49878">
        <ele>343.605131</ele>
        <time>2022-02-26T11:37:56.769Z</time>
      </trkpt>
      <trkpt lat="43.58635" lon="5.49955">
        <ele>342.591425</ele>
        <time>2022-02-26T11:38:28.788Z</time>
      </trkpt>
      <trkpt lat="43.58633" lon="5.49956">
        <ele>342.578168</ele>
        <time>2022-02-26T11:38:28.989Z</time>
      </trkpt>
      <trkpt lat="43.58616" lon="5.49959">
        <ele>342.446433</ele>
        <time>2022-02-26T11:38:32.059Z</time>
      </trkpt>
      <trkpt lat="43.58607" lon="5.4996">
        <ele>342.378852</ele>
        <time>2022-02-26T11:38:33.672Z</time>
      </trkpt>
      <trkpt lat="43.58604" lon="5.49962">
        <ele>342.354718</ele>
        <time>2022-02-26T11:38:35.307Z</time>
      </trkpt>
      <trkpt lat="43.58597" lon="5.50002">
        <ele>342.244255</ele>
        <time>2022-02-26T11:38:40.507Z</time>
      </trkpt>
      <trkpt lat="43.58579" lon="5.50005">
        <ele>342.35457</ele>
        <time>2022-02-26T11:38:43.948Z</time>
      </trkpt>
      <trkpt lat="43.58541" lon="5.50021">
        <ele>342.593812</ele>
        <time>2022-02-26T11:38:52.503Z</time>
      </trkpt>
      <trkpt lat="43.58533" lon="5.50036">
        <ele>342.67353</ele>
        <time>2022-02-26T11:38:55.768Z</time>
      </trkpt>
      <trkpt lat="43.58522" lon="5.50114">
        <ele>343.018611</ele>
        <time>2022-02-26T11:39:11.594Z</time>
      </trkpt>
      <trkpt lat="43.58507" lon="5.50148">
        <ele>343.191495</ele>
        <time>2022-02-26T11:39:19.184Z</time>
      </trkpt>
      <trkpt lat="43.58475" lon="5.50201">
        <ele>343.608125</ele>
        <time>2022-02-26T11:39:31.777Z</time>
      </trkpt>
      <trkpt lat="43.58436" lon="5.50219">
        <ele>343.988782</ele>
        <time>2022-02-26T11:39:41.755Z</time>
      </trkpt>
      <trkpt lat="43.58399" lon="5.50247">
        <ele>344.377324</ele>
        <time>2022-02-26T11:39:52.107Z</time>
      </trkpt>
      <trkpt lat="43.5834" lon="5.5025">
        <ele>344.917109</ele>
        <time>2022-02-26T11:40:06.782Z</time>
      </trkpt>
      <trkpt lat="43.58329" lon="5.50227">
        <ele>345.044111</ele>
        <time>2022-02-26T11:40:12.071Z</time>
      </trkpt>
      <trkpt lat="43.5831" lon="5.50174">
        <ele>345.301261</ele>
        <time>2022-02-26T11:40:21.702Z</time>
      </trkpt>
      <trkpt lat="43.58291" lon="5.50121">
        <ele>345.558145</ele>
        <time>2022-02-26T11:40:30.811Z</time>
      </trkpt>
      <trkpt lat="43.58272" lon="5.50087">
        <ele>345.748499</ele>
        <time>2022-02-26T11:40:38.131Z</time>
      </trkpt>
      <trkpt lat="43.58263" lon="5.50073">
        <ele>345.827646</ele>
        <time>2022-02-26T11:40:41.680Z</time>
      </trkpt>
      <trkpt lat="43.58263" lon="5.50073">
        <ele>345.827646</ele>
        <time>2022-02-26T11:40:41.757Z</time>
      </trkpt>
      <trkpt lat="43.58248" lon="5.50049">
        <ele>345.96887</ele>
        <time>2022-02-26T11:40:46.917Z</time>
      </trkpt>
      <trkpt lat="43.58209" lon="5.50002">
        <ele>346.268295</ele>
        <time>2022-02-26T11:40:59.140Z</time>
      </trkpt>
      <trkpt lat="43.58201" lon="5.49994">
        <ele>346.32528</ele>
        <time>2022-02-26T11:41:00.911Z</time>
      </trkpt>
      <trkpt lat="43.58173" lon="5.49967">
        <ele>346.522011</ele>
        <time>2022-02-26T11:41:08.570Z</time>
      </trkpt>
      <trkpt lat="43.58169" lon="5.49965">
        <ele>346.547465</ele>
        <time>2022-02-26T11:41:09.655Z</time>
      </trkpt>
      <trkpt lat="43.58109" lon="5.4992">
        <ele>346.94084</ele>
        <time>2022-02-26T11:41:24.684Z</time>
      </trkpt>
      <trkpt lat="43.5802" lon="5.49854">
        <ele>347.972703</ele>
        <time>2022-02-26T11:41:51.130Z</time>
      </trkpt>
      <trkpt lat="43.5796" lon="5.49774">
        <ele>348.907664</ele>
        <time>2022-02-26T11:42:12.755Z</time>
      </trkpt>
      <trkpt lat="43.57942" lon="5.49751">
        <ele>349.235053</ele>
        <time>2022-02-26T11:42:19.286Z</time>
      </trkpt>
      <trkpt lat="43.57921" lon="5.49792">
        <ele>349.806409</ele>
        <time>2022-02-26T11:42:28.909Z</time>
      </trkpt>
      <trkpt lat="43.57884" lon="5.49838">
        <ele>350.576862</ele>
        <time>2022-02-26T11:42:42.267Z</time>
      </trkpt>
      <trkpt lat="43.57855" lon="5.49892">
        <ele>351.329211</ele>
        <time>2022-02-26T11:42:56.207Z</time>
      </trkpt>
      <trkpt lat="43.57847" lon="5.49934">
        <ele>351.819397</ele>
        <time>2022-02-26T11:43:05.681Z</time>
      </trkpt>
      <trkpt lat="43.57848" lon="5.49986">
        <ele>352.757787</ele>
        <time>2022-02-26T11:43:17.101Z</time>
      </trkpt>
      <trkpt lat="43.57843" lon="5.49999">
        <ele>353.027491</ele>
        <time>2022-02-26T11:43:20.262Z</time>
      </trkpt>
      <trkpt lat="43.5756" lon="5.50268">
        <ele>362.482085</ele>
        <time>2022-02-26T11:45:17.968Z</time>
      </trkpt>
      <trkpt lat="43.5753" lon="5.50311">
        <ele>363.714021</ele>
        <time>2022-02-26T11:45:34.282Z</time>
      </trkpt>
      <trkpt lat="43.57489" lon="5.50417">
        <ele>366.229295</ele>
        <time>2022-02-26T11:46:06.357Z</time>
      </trkpt>
      <trkpt lat="43.5768" lon="5.50583">
        <ele>369.458821</ele>
        <time>2022-02-26T11:47:33.941Z</time>
      </trkpt>
      <trkpt lat="43.57686" lon="5.50586">
        <ele>369.484126</ele>
        <time>2022-02-26T11:47:35.967Z</time>
      </trkpt>
      <trkpt lat="43.577" lon="5.50593">
        <ele>369.545922</ele>
        <time>2022-02-26T11:47:40.797Z</time>
      </trkpt>
      <trkpt lat="43.57722" lon="5.50623">
        <ele>369.667231</ele>
        <time>2022-02-26T11:47:49.793Z</time>
      </trkpt>
      <trkpt lat="43.57723" lon="5.50627">
        <ele>369.679803</ele>
        <time>2022-02-26T11:47:50.859Z</time>
      </trkpt>
      <trkpt lat="43.57727" lon="5.50643">
        <ele>369.7306</ele>
        <time>2022-02-26T11:47:54.314Z</time>
      </trkpt>
      <trkpt lat="43.57721" lon="5.5071">
        <ele>369.925692</ele>
        <time>2022-02-26T11:48:08.558Z</time>
      </trkpt>
      <trkpt lat="43.57726" lon="5.50729">
        <ele>369.984818</ele>
        <time>2022-02-26T11:48:13.921Z</time>
      </trkpt>
      <trkpt lat="43.57723" lon="5.50784">
        <ele>370.873862</ele>
        <time>2022-02-26T11:48:31.029Z</time>
      </trkpt>
      <trkpt lat="43.57733" lon="5.50844">
        <ele>373.116663</ele>
        <time>2022-02-26T11:48:52.868Z</time>
      </trkpt>
      <trkpt lat="43.57733" lon="5.50863">
        <ele>373.789118</ele>
        <time>2022-02-26T11:48:57.838Z</time>
      </trkpt>
      <trkpt lat="43.57727" lon="5.50873">
        <ele>374.272781</ele>
        <time>2022-02-26T11:49:03.562Z</time>
      </trkpt>
      <trkpt lat="43.57718" lon="5.50918">
        <ele>375.948355</ele>
        <time>2022-02-26T11:49:22.666Z</time>
      </trkpt>
      <trkpt lat="43.57718" lon="5.50921">
        <ele>376.071246</ele>
        <time>2022-02-26T11:49:24.891Z</time>
      </trkpt>
      <trkpt lat="43.57717" lon="5.50936">
        <ele>376.591825</ele>
        <time>2022-02-26T11:49:33.568Z</time>
      </trkpt>
      <trkpt lat="43.57723" lon="5.51002">
        <ele>379.003311</ele>
        <time>2022-02-26T11:50:04.402Z</time>
      </trkpt>
      <trkpt lat="43.5772" lon="5.51112">
        <ele>387.221472</ele>
        <time>2022-02-26T11:51:08.531Z</time>
      </trkpt>
      <trkpt lat="43.57724" lon="5.5113">
        <ele>388.580954</ele>
        <time>2022-02-26T11:51:22.911Z</time>
      </trkpt>
      <trkpt lat="43.5778" lon="5.51244">
        <ele>398.975144</ele>
        <time>2022-02-26T11:52:49.626Z</time>
      </trkpt>
      <trkpt lat="43.57789" lon="5.5127">
        <ele>401.277382</ele>
        <time>2022-02-26T11:53:09.128Z</time>
      </trkpt>
      <trkpt lat="43.57788" lon="5.51296">
        <ele>403.257727</ele>
        <time>2022-02-26T11:53:23.698Z</time>
      </trkpt>
      <trkpt lat="43.57782" lon="5.51323">
        <ele>405.487527</ele>
        <time>2022-02-26T11:53:42.564Z</time>
      </trkpt>
      <trkpt lat="43.57751" lon="5.51374">
        <ele>410.708886</ele>
        <time>2022-02-26T11:54:23.013Z</time>
      </trkpt>
      <trkpt lat="43.57738" lon="5.51382">
        <ele>412.181438</ele>
        <time>2022-02-26T11:54:35.601Z</time>
      </trkpt>
      <trkpt lat="43.57725" lon="5.51434">
        <ele>416.413444</ele>
        <time>2022-02-26T11:55:10.064Z</time>
      </trkpt>
      <trkpt lat="43.5769" lon="5.51478">
        <ele>421.045667</ele>
        <time>2022-02-26T11:55:49.264Z</time>
      </trkpt>
      <trkpt lat="43.57676" lon="5.51504">
        <ele>423.310315</ele>
        <time>2022-02-26T11:56:07.229Z</time>
      </trkpt>
      <trkpt lat="43.57665" lon="5.51573">
        <ele>428.186134</ele>
        <time>2022-02-26T11:56:47.036Z</time>
      </trkpt>
      <trkpt lat="43.5763" lon="5.51668">
        <ele>435.319885</ele>
        <time>2022-02-26T11:57:48.235Z</time>
      </trkpt>
      <trkpt lat="43.57629" lon="5.51687">
        <ele>436.366373</ele>
        <time>2022-02-26T11:57:58.661Z</time>
      </trkpt>
      <trkpt lat="43.57638" lon="5.51771">
        <ele>441.193903</ele>
        <time>2022-02-26T11:58:44.933Z</time>
      </trkpt>
      <trkpt lat="43.57635" lon="5.51804">
        <ele>443.096595</ele>
        <time>2022-02-26T11:59:02.316Z</time>
      </trkpt>
      <trkpt lat="43.57601" lon="5.51841">
        <ele>446.505018</ele>
        <time>2022-02-26T11:59:31.814Z</time>
      </trkpt>
      <trkpt lat="43.57597" lon="5.51887">
        <ele>448.680444</ele>
        <time>2022-02-26T11:59:52.724Z</time>
      </trkpt>
      <trkpt lat="43.57569" lon="5.51905">
        <ele>449.890932</ele>
        <time>2022-02-26T12:00:11.359Z</time>
      </trkpt>
      <trkpt lat="43.57508" lon="5.51985">
        <ele>453.105313</ele>
        <time>2022-02-26T12:00:53.890Z</time>
      </trkpt>
      <trkpt lat="43.57497" lon="5.52007">
        <ele>453.844795</ele>
        <time>2022-02-26T12:01:02.435Z</time>
      </trkpt>
      <trkpt lat="43.57494" lon="5.52035">
        <ele>454.624396</ele>
        <time>2022-02-26T12:01:11.174Z</time>
      </trkpt>
      <trkpt lat="43.57496" lon="5.52072">
        <ele>455.307581</ele>
        <time>2022-02-26T12:01:22.168Z</time>
      </trkpt>
      <trkpt lat="43.57496" lon="5.52076">
        <ele>455.342658</ele>
        <time>2022-02-26T12:01:23.352Z</time>
      </trkpt>
      <trkpt lat="43.57472" lon="5.52138">
        <ele>455.942147</ele>
        <time>2022-02-26T12:01:42.700Z</time>
      </trkpt>
      <trkpt lat="43.57472" lon="5.52237">
        <ele>456.788937</ele>
        <time>2022-02-26T12:02:08.561Z</time>
      </trkpt>
      <trkpt lat="43.57461" lon="5.52301">
        <ele>457.359509</ele>
        <time>2022-02-26T12:02:25.387Z</time>
      </trkpt>
      <trkpt lat="43.57431" lon="5.52362">
        <ele>458.135098</ele>
        <time>2022-02-26T12:02:45.022Z</time>
      </trkpt>
      <trkpt lat="43.5742" lon="5.52419">
        <ele>458.752968</ele>
        <time>2022-02-26T12:03:01.094Z</time>
      </trkpt>
      <trkpt lat="43.57389" lon="5.52736">
        <ele>463.400044</ele>
        <time>2022-02-26T12:04:38.001Z</time>
      </trkpt>
      <trkpt lat="43.57376" lon="5.52803">
        <ele>464.869628</ele>
        <time>2022-02-26T12:05:02.043Z</time>
      </trkpt>
      <trkpt lat="43.57378" lon="5.52871">
        <ele>466.656528</ele>
        <time>2022-02-26T12:05:26.552Z</time>
      </trkpt>
      <trkpt lat="43.57374" lon="5.52933">
        <ele>468.292287</ele>
        <time>2022-02-26T12:05:49.777Z</time>
      </trkpt>
      <trkpt lat="43.57379" lon="5.5314">
        <ele>473.908073</ele>
        <time>2022-02-26T12:07:06.788Z</time>
      </trkpt>
      <trkpt lat="43.57388" lon="5.53289">
        <ele>478.087203</ele>
        <time>2022-02-26T12:08:01.268Z</time>
      </trkpt>
      <trkpt lat="43.57364" lon="5.53379">
        <ele>480.920766</ele>
        <time>2022-02-26T12:08:37.138Z</time>
      </trkpt>
      <trkpt lat="43.57348" lon="5.53413">
        <ele>482.097425</ele>
        <time>2022-02-26T12:08:52.369Z</time>
      </trkpt>
      <trkpt lat="43.57233" lon="5.53633">
        <ele>490.277395</ele>
        <time>2022-02-26T12:10:38.031Z</time>
      </trkpt>
      <trkpt lat="43.57203" lon="5.5368">
        <ele>492.193552</ele>
        <time>2022-02-26T12:11:01.519Z</time>
      </trkpt>
      <trkpt lat="43.57154" lon="5.53788">
        <ele>495.336656</ele>
        <time>2022-02-26T12:11:47.120Z</time>
      </trkpt>
      <trkpt lat="43.57128" lon="5.53858">
        <ele>497.264808</ele>
        <time>2022-02-26T12:12:14.137Z</time>
      </trkpt>
      <trkpt lat="43.57089" lon="5.5393">
        <ele>499.275901</ele>
        <time>2022-02-26T12:12:44.792Z</time>
      </trkpt>
      <trkpt lat="43.57069" lon="5.54031">
        <ele>501.367317</ele>
        <time>2022-02-26T12:13:20.125Z</time>
      </trkpt>
      <trkpt lat="43.57054" lon="5.54187">
        <ele>503.553976</ele>
        <time>2022-02-26T12:14:10.682Z</time>
      </trkpt>
      <trkpt lat="43.57036" lon="5.54238">
        <ele>503.789143</ele>
        <time>2022-02-26T12:14:26.291Z</time>
      </trkpt>
      <trkpt lat="43.56995" lon="5.5433">
        <ele>504.233732</ele>
        <time>2022-02-26T12:14:50.946Z</time>
      </trkpt>
      <trkpt lat="43.56962" lon="5.54343">
        <ele>503.85315</ele>
        <time>2022-02-26T12:15:00.743Z</time>
      </trkpt>
      <trkpt lat="43.56913" lon="5.54359">
        <ele>502.498384</ele>
        <time>2022-02-26T12:15:14.253Z</time>
      </trkpt>
      <trkpt lat="43.56863" lon="5.54358">
        <ele>501.153655</ele>
        <time>2022-02-26T12:15:26.839Z</time>
      </trkpt>
      <trkpt lat="43.56791" lon="5.54388">
        <ele>499.312228</ele>
        <time>2022-02-26T12:15:45.976Z</time>
      </trkpt>
      <trkpt lat="43.56779" lon="5.54397">
        <ele>499.15135</ele>
        <time>2022-02-26T12:15:49.763Z</time>
      </trkpt>
      <trkpt lat="43.56749" lon="5.54445">
        <ele>498.587962</ele>
        <time>2022-02-26T12:16:02.374Z</time>
      </trkpt>
      <trkpt lat="43.56737" lon="5.54449">
        <ele>498.43864</ele>
        <time>2022-02-26T12:16:05.472Z</time>
      </trkpt>
      <trkpt lat="43.56748" lon="5.54467">
        <ele>498.231998</ele>
        <time>2022-02-26T12:16:10.910Z</time>
      </trkpt>
      <trkpt lat="43.56747" lon="5.54529">
        <ele>497.68129</ele>
        <time>2022-02-26T12:16:24.402Z</time>
      </trkpt>
      <trkpt lat="43.56735" lon="5.54577">
        <ele>497.321705</ele>
        <time>2022-02-26T12:16:36.288Z</time>
      </trkpt>
      <trkpt lat="43.56723" lon="5.5473">
        <ele>498.908997</ele>
        <time>2022-02-26T12:17:20.150Z</time>
      </trkpt>
      <trkpt lat="43.56727" lon="5.54844">
        <ele>500.163486</ele>
        <time>2022-02-26T12:17:54.594Z</time>
      </trkpt>
      <trkpt lat="43.56747" lon="5.54901">
        <ele>500.983715</ele>
        <time>2022-02-26T12:18:13.140Z</time>
      </trkpt>
      <trkpt lat="43.56772" lon="5.54939">
        <ele>501.657797</ele>
        <time>2022-02-26T12:18:28.278Z</time>
      </trkpt>
      <trkpt lat="43.56794" lon="5.55028">
        <ele>502.882611</ele>
        <time>2022-02-26T12:18:55.758Z</time>
      </trkpt>
      <trkpt lat="43.5682" lon="5.55168">
        <ele>504.098849</ele>
        <time>2022-02-26T12:19:38.338Z</time>
      </trkpt>
      <trkpt lat="43.56868" lon="5.55345">
        <ele>504.272924</ele>
        <time>2022-02-26T12:20:24.898Z</time>
      </trkpt>
      <trkpt lat="43.56877" lon="5.55378">
        <ele>503.893415</ele>
        <time>2022-02-26T12:20:32.636Z</time>
      </trkpt>
      <trkpt lat="43.56876" lon="5.55386">
        <ele>503.808429</ele>
        <time>2022-02-26T12:20:34.306Z</time>
      </trkpt>
      <trkpt lat="43.56876" lon="5.55392">
        <ele>503.738544</ele>
        <time>2022-02-26T12:20:35.458Z</time>
      </trkpt>
      <trkpt lat="43.56873" lon="5.55406">
        <ele>503.59295</ele>
        <time>2022-02-26T12:20:38.273Z</time>
      </trkpt>
      <trkpt lat="43.56878" lon="5.55431">
        <ele>503.305874</ele>
        <time>2022-02-26T12:20:43.799Z</time>
      </trkpt>
      <trkpt lat="43.56875" lon="5.55449">
        <ele>503.110824</ele>
        <time>2022-02-26T12:20:47.188Z</time>
      </trkpt>
      <trkpt lat="43.5684" lon="5.55499">
        <ele>502.361838</ele>
        <time>2022-02-26T12:21:00.461Z</time>
      </trkpt>
      <trkpt lat="43.56836" lon="5.55581">
        <ele>499.84957</ele>
        <time>2022-02-26T12:21:15.199Z</time>
      </trkpt>
      <trkpt lat="43.56827" lon="5.556">
        <ele>499.139615</ele>
        <time>2022-02-26T12:21:19.368Z</time>
      </trkpt>
      <trkpt lat="43.56809" lon="5.55673">
        <ele>496.786287</ele>
        <time>2022-02-26T12:21:33.040Z</time>
      </trkpt>
      <trkpt lat="43.56799" lon="5.55686">
        <ele>496.192482</ele>
        <time>2022-02-26T12:21:36.415Z</time>
      </trkpt>
      <trkpt lat="43.56794" lon="5.55712">
        <ele>495.385793</ele>
        <time>2022-02-26T12:21:41.042Z</time>
      </trkpt>
      <trkpt lat="43.56771" lon="5.55778">
        <ele>493.676926</ele>
        <time>2022-02-26T12:21:54.103Z</time>
      </trkpt>
      <trkpt lat="43.56743" lon="5.5584">
        <ele>492.184056</ele>
        <time>2022-02-26T12:22:07.594Z</time>
      </trkpt>
      <trkpt lat="43.56736" lon="5.5585">
        <ele>491.912481</ele>
        <time>2022-02-26T12:22:09.994Z</time>
      </trkpt>
      <trkpt lat="43.56717" lon="5.55862">
        <ele>491.29567</ele>
        <time>2022-02-26T12:22:15.899Z</time>
      </trkpt>
      <trkpt lat="43.56706" lon="5.55872">
        <ele>490.939221</ele>
        <time>2022-02-26T12:22:19.264Z</time>
      </trkpt>
      <trkpt lat="43.56701" lon="5.55881">
        <ele>490.712361</ele>
        <time>2022-02-26T12:22:21.497Z</time>
      </trkpt>
      <trkpt lat="43.56674" lon="5.55931">
        <ele>489.925545</ele>
        <time>2022-02-26T12:22:34.684Z</time>
      </trkpt>
      <trkpt lat="43.56632" lon="5.55947">
        <ele>490.935494</ele>
        <time>2022-02-26T12:22:49.294Z</time>
      </trkpt>
      <trkpt lat="43.56615" lon="5.55963">
        <ele>491.407244</ele>
        <time>2022-02-26T12:22:56.790Z</time>
      </trkpt>
      <trkpt lat="43.56607" lon="5.56018">
        <ele>492.365208</ele>
        <time>2022-02-26T12:23:15.932Z</time>
      </trkpt>
      <trkpt lat="43.56599" lon="5.5604">
        <ele>492.783772</ele>
        <time>2022-02-26T12:23:25.276Z</time>
      </trkpt>
      <trkpt lat="43.56603" lon="5.56069">
        <ele>493.284487</ele>
        <time>2022-02-26T12:23:36.529Z</time>
      </trkpt>
      <trkpt lat="43.56599" lon="5.56102">
        <ele>493.844114</ele>
        <time>2022-02-26T12:23:49.730Z</time>
      </trkpt>
      <trkpt lat="43.56591" lon="5.56116">
        <ele>494.324141</ele>
        <time>2022-02-26T12:23:56.843Z</time>
      </trkpt>
      <trkpt lat="43.56589" lon="5.56135">
        <ele>494.902572</ele>
        <time>2022-02-26T12:24:07.323Z</time>
      </trkpt>
      <trkpt lat="43.56574" lon="5.56159">
        <ele>495.819504</ele>
        <time>2022-02-26T12:24:18.560Z</time>
      </trkpt>
      <trkpt lat="43.56576" lon="5.56181">
        <ele>496.470582</ele>
        <time>2022-02-26T12:24:29.359Z</time>
      </trkpt>
      <trkpt lat="43.56568" lon="5.56196">
        <ele>496.993963</ele>
        <time>2022-02-26T12:24:35.328Z</time>
      </trkpt>
      <trkpt lat="43.56567" lon="5.56224">
        <ele>497.825951</ele>
        <time>2022-02-26T12:24:48.391Z</time>
      </trkpt>
      <trkpt lat="43.56558" lon="5.56245">
        <ele>498.549442</ele>
        <time>2022-02-26T12:24:56.183Z</time>
      </trkpt>
      <trkpt lat="43.56548" lon="5.56306">
        <ele>500.389207</ele>
        <time>2022-02-26T12:25:18.669Z</time>
      </trkpt>
      <trkpt lat="43.56547" lon="5.56316">
        <ele>500.677431</ele>
        <time>2022-02-26T12:25:24.333Z</time>
      </trkpt>
      <trkpt lat="43.56536" lon="5.56311">
        <ele>501.115923</ele>
        <time>2022-02-26T12:25:27.727Z</time>
      </trkpt>
      <trkpt lat="43.56525" lon="5.56288">
        <ele>501.072032</ele>
        <time>2022-02-26T12:25:36.241Z</time>
      </trkpt>
      <trkpt lat="43.56517" lon="5.5625">
        <ele>500.902954</ele>
        <time>2022-02-26T12:25:46.405Z</time>
      </trkpt>
      <trkpt lat="43.56499" lon="5.5622">
        <ele>500.738146</ele>
        <time>2022-02-26T12:25:55.839Z</time>
      </trkpt>
      <trkpt lat="43.56478" lon="5.56159">
        <ele>500.453893</ele>
        <time>2022-02-26T12:26:09.934Z</time>
      </trkpt>
      <trkpt lat="43.56459" lon="5.56131">
        <ele>500.289072</ele>
        <time>2022-02-26T12:26:17.719Z</time>
      </trkpt>
      <trkpt lat="43.5644" lon="5.56131">
        <ele>500.178</ele>
        <time>2022-02-26T12:26:22.676Z</time>
      </trkpt>
      <trkpt lat="43.56438" lon="5.56133">
        <ele>500.162588</ele>
        <time>2022-02-26T12:26:23.293Z</time>
      </trkpt>
      <trkpt lat="43.56422" lon="5.56109">
        <ele>499.569061</ele>
        <time>2022-02-26T12:26:29.357Z</time>
      </trkpt>
      <trkpt lat="43.56375" lon="5.5601">
        <ele>496.844275</ele>
        <time>2022-02-26T12:26:51.016Z</time>
      </trkpt>
      <trkpt lat="43.56365" lon="5.55944">
        <ele>495.303621</ele>
        <time>2022-02-26T12:27:03.308Z</time>
      </trkpt>
      <trkpt lat="43.56349" lon="5.55911">
        <ele>494.425687</ele>
        <time>2022-02-26T12:27:11.020Z</time>
      </trkpt>
      <trkpt lat="43.56347" lon="5.55855">
        <ele>494.316801</ele>
        <time>2022-02-26T12:27:22.422Z</time>
      </trkpt>
      <trkpt lat="43.56341" lon="5.55829">
        <ele>494.265044</ele>
        <time>2022-02-26T12:27:27.662Z</time>
      </trkpt>
      <trkpt lat="43.56337" lon="5.55805">
        <ele>494.217006</ele>
        <time>2022-02-26T12:27:34.027Z</time>
      </trkpt>
      <trkpt lat="43.56337" lon="5.55784">
        <ele>494.175554</ele>
        <time>2022-02-26T12:27:38.189Z</time>
      </trkpt>
      <trkpt lat="43.56344" lon="5.55778">
        <ele>494.153694</ele>
        <time>2022-02-26T12:27:42.592Z</time>
      </trkpt>
      <trkpt lat="43.5636" lon="5.5576">
        <ele>494.098555</ele>
        <time>2022-02-26T12:27:48.838Z</time>
      </trkpt>
      <trkpt lat="43.56374" lon="5.55712">
        <ele>493.998107</ele>
        <time>2022-02-26T12:28:02.565Z</time>
      </trkpt>
      <trkpt lat="43.56401" lon="5.55678">
        <ele>494.199832</ele>
        <time>2022-02-26T12:28:17.412Z</time>
      </trkpt>
      <trkpt lat="43.56429" lon="5.55679">
        <ele>494.58938</ele>
        <time>2022-02-26T12:28:30.296Z</time>
      </trkpt>
      <trkpt lat="43.56448" lon="5.55672">
        <ele>494.860666</ele>
        <time>2022-02-26T12:28:38.908Z</time>
      </trkpt>
      <trkpt lat="43.56523" lon="5.55614">
        <ele>496.089161</ele>
        <time>2022-02-26T12:29:13.894Z</time>
      </trkpt>
      <trkpt lat="43.56551" lon="5.55599">
        <ele>496.467175</ele>
        <time>2022-02-26T12:29:23.950Z</time>
      </trkpt>
      <trkpt lat="43.56558" lon="5.55588">
        <ele>496.274257</ele>
        <time>2022-02-26T12:29:27.109Z</time>
      </trkpt>
      <trkpt lat="43.56569" lon="5.55575">
        <ele>495.992381</ele>
        <time>2022-02-26T12:29:31.808Z</time>
      </trkpt>
      <trkpt lat="43.56565" lon="5.55516">
        <ele>495.185588</ele>
        <time>2022-02-26T12:29:44.022Z</time>
      </trkpt>
      <trkpt lat="43.56559" lon="5.55499">
        <ele>494.926736</ele>
        <time>2022-02-26T12:29:47.774Z</time>
      </trkpt>
      <trkpt lat="43.56557" lon="5.55385">
        <ele>493.369759</ele>
        <time>2022-02-26T12:30:09.497Z</time>
      </trkpt>
      <trkpt lat="43.5655" lon="5.55309">
        <ele>492.012133</ele>
        <time>2022-02-26T12:30:23.689Z</time>
      </trkpt>
      <trkpt lat="43.56554" lon="5.55274">
        <ele>491.339726</ele>
        <time>2022-02-26T12:30:30.366Z</time>
      </trkpt>
      <trkpt lat="43.56541" lon="5.5524">
        <ele>490.627126</ele>
        <time>2022-02-26T12:30:37.511Z</time>
      </trkpt>
      <trkpt lat="43.56518" lon="5.5523">
        <ele>489.999536</ele>
        <time>2022-02-26T12:30:43.919Z</time>
      </trkpt>
      <trkpt lat="43.56499" lon="5.55196">
        <ele>489.180861</ele>
        <time>2022-02-26T12:30:52.418Z</time>
      </trkpt>
      <trkpt lat="43.56473" lon="5.5508">
        <ele>487.73559</ele>
        <time>2022-02-26T12:31:17.406Z</time>
      </trkpt>
      <trkpt lat="43.56472" lon="5.55049">
        <ele>487.475928</ele>
        <time>2022-02-26T12:31:24.037Z</time>
      </trkpt>
      <trkpt lat="43.56478" lon="5.55014">
        <ele>487.178263</ele>
        <time>2022-02-26T12:31:31.660Z</time>
      </trkpt>
      <trkpt lat="43.56475" lon="5.54971">
        <ele>486.816786</ele>
        <time>2022-02-26T12:31:40.948Z</time>
      </trkpt>
      <trkpt lat="43.56464" lon="5.54895">
        <ele>486.001004</ele>
        <time>2022-02-26T12:31:57.443Z</time>
      </trkpt>
      <trkpt lat="43.56463" lon="5.54858">
        <ele>485.396843</ele>
        <time>2022-02-26T12:32:04.997Z</time>
      </trkpt>
      <trkpt lat="43.56444" lon="5.54778">
        <ele>484.015164</ele>
        <time>2022-02-26T12:32:21.736Z</time>
      </trkpt>
      <trkpt lat="43.56442" lon="5.54754">
        <ele>483.618745</ele>
        <time>2022-02-26T12:32:26.433Z</time>
      </trkpt>
      <trkpt lat="43.56448" lon="5.5471">
        <ele>482.873033</ele>
        <time>2022-02-26T12:32:35.091Z</time>
      </trkpt>
      <trkpt lat="43.56418" lon="5.5465">
        <ele>481.258907</ele>
        <time>2022-02-26T12:32:48.605Z</time>
      </trkpt>
      <trkpt lat="43.56384" lon="5.54581">
        <ele>478.867098</ele>
        <time>2022-02-26T12:33:03.633Z</time>
      </trkpt>
      <trkpt lat="43.56352" lon="5.54545">
        <ele>477.22209</ele>
        <time>2022-02-26T12:33:13.723Z</time>
      </trkpt>
      <trkpt lat="43.56341" lon="5.54519">
        <ele>476.363889</ele>
        <time>2022-02-26T12:33:19.015Z</time>
      </trkpt>
      <trkpt lat="43.56308" lon="5.54476">
        <ele>474.721049</ele>
        <time>2022-02-26T12:33:30.453Z</time>
      </trkpt>
      <trkpt lat="43.56295" lon="5.54467">
        <ele>474.298271</ele>
        <time>2022-02-26T12:33:34.052Z</time>
      </trkpt>
      <trkpt lat="43.56286" lon="5.5447">
        <ele>474.016276</ele>
        <time>2022-02-26T12:33:36.485Z</time>
      </trkpt>
      <trkpt lat="43.56254" lon="5.54477">
        <ele>473.076629</ele>
        <time>2022-02-26T12:33:44.821Z</time>
      </trkpt>
      <trkpt lat="43.56234" lon="5.54466">
        <ele>472.435054</ele>
        <time>2022-02-26T12:33:50.620Z</time>
      </trkpt>
      <trkpt lat="43.56184" lon="5.54414">
        <ele>470.624821</ele>
        <time>2022-02-26T12:34:07.065Z</time>
      </trkpt>
      <trkpt lat="43.56149" lon="5.54369">
        <ele>469.659866</ele>
        <time>2022-02-26T12:34:20.096Z</time>
      </trkpt>
      <trkpt lat="43.56127" lon="5.54339">
        <ele>469.336951</ele>
        <time>2022-02-26T12:34:29.077Z</time>
      </trkpt>
      <trkpt lat="43.5609" lon="5.54297">
        <ele>468.833808</ele>
        <time>2022-02-26T12:34:43.379Z</time>
      </trkpt>
      <trkpt lat="43.56067" lon="5.54263">
        <ele>468.476264</ele>
        <time>2022-02-26T12:34:53.572Z</time>
      </trkpt>
      <trkpt lat="43.56063" lon="5.54258">
        <ele>468.424946</ele>
        <time>2022-02-26T12:34:54.972Z</time>
      </trkpt>
      <trkpt lat="43.56016" lon="5.54152">
        <ele>468.158545</ele>
        <time>2022-02-26T12:35:21.818Z</time>
      </trkpt>
      <trkpt lat="43.56" lon="5.54106">
        <ele>468.261362</ele>
        <time>2022-02-26T12:35:34.989Z</time>
      </trkpt>
      <trkpt lat="43.55973" lon="5.54063">
        <ele>468.376555</ele>
        <time>2022-02-26T12:35:50.373Z</time>
      </trkpt>
      <trkpt lat="43.55962" lon="5.54047">
        <ele>468.423257</ele>
        <time>2022-02-26T12:35:55.833Z</time>
      </trkpt>
      <trkpt lat="43.55937" lon="5.5401">
        <ele>468.506837</ele>
        <time>2022-02-26T12:36:08.642Z</time>
      </trkpt>
      <trkpt lat="43.55934" lon="5.54004">
        <ele>468.481348</ele>
        <time>2022-02-26T12:36:10.356Z</time>
      </trkpt>
      <trkpt lat="43.55916" lon="5.53967">
        <ele>468.325525</ele>
        <time>2022-02-26T12:36:21.244Z</time>
      </trkpt>
      <trkpt lat="43.55904" lon="5.53945">
        <ele>468.229543</ele>
        <time>2022-02-26T12:36:28.463Z</time>
      </trkpt>
      <trkpt lat="43.55861" lon="5.53891">
        <ele>467.949957</ele>
        <time>2022-02-26T12:36:46.112Z</time>
      </trkpt>
      <trkpt lat="43.55832" lon="5.53851">
        <ele>467.751133</ele>
        <time>2022-02-26T12:36:58.478Z</time>
      </trkpt>
      <trkpt lat="43.55803" lon="5.53795">
        <ele>466.670972</ele>
        <time>2022-02-26T12:37:12.329Z</time>
      </trkpt>
      <trkpt lat="43.55795" lon="5.5374">
        <ele>465.294813</ele>
        <time>2022-02-26T12:37:22.561Z</time>
      </trkpt>
      <trkpt lat="43.55774" lon="5.53675">
        <ele>463.533509</ele>
        <time>2022-02-26T12:37:35.594Z</time>
      </trkpt>
      <trkpt lat="43.55755" lon="5.53589">
        <ele>461.305292</ele>
        <time>2022-02-26T12:37:51.841Z</time>
      </trkpt>
      <trkpt lat="43.55704" lon="5.53482">
        <ele>457.971971</ele>
        <time>2022-02-26T12:38:14.366Z</time>
      </trkpt>
      <trkpt lat="43.55636" lon="5.53458">
        <ele>455.437212</ele>
        <time>2022-02-26T12:38:32.745Z</time>
      </trkpt>
      <trkpt lat="43.55609" lon="5.53468">
        <ele>455.035607</ele>
        <time>2022-02-26T12:38:40.706Z</time>
      </trkpt>
      <trkpt lat="43.55597" lon="5.53453">
        <ele>455.006615</ele>
        <time>2022-02-26T12:38:45.066Z</time>
      </trkpt>
      <trkpt lat="43.55582" lon="5.53461">
        <ele>454.97733</ele>
        <time>2022-02-26T12:38:49.872Z</time>
      </trkpt>
      <trkpt lat="43.55569" lon="5.53472">
        <ele>454.950241</ele>
        <time>2022-02-26T12:38:54.135Z</time>
      </trkpt>
      <trkpt lat="43.55582" lon="5.53461">
        <ele>454.923152</ele>
        <time>2022-02-26T12:38:58.731Z</time>
      </trkpt>
      <trkpt lat="43.55597" lon="5.53453">
        <ele>454.893866</ele>
        <time>2022-02-26T12:39:03.930Z</time>
      </trkpt>
      <trkpt lat="43.5561" lon="5.53416">
        <ele>454.839955</ele>
        <time>2022-02-26T12:39:13.682Z</time>
      </trkpt>
      <trkpt lat="43.55619" lon="5.53385">
        <ele>454.795962</ele>
        <time>2022-02-26T12:39:21.449Z</time>
      </trkpt>
      <trkpt lat="43.55656" lon="5.53325">
        <ele>455.31134</ele>
        <time>2022-02-26T12:39:44.319Z</time>
      </trkpt>
      <trkpt lat="43.55731" lon="5.53201">
        <ele>457.815919</ele>
        <time>2022-02-26T12:40:37.364Z</time>
      </trkpt>
      <trkpt lat="43.55729" lon="5.53163">
        <ele>458.398664</ele>
        <time>2022-02-26T12:40:48.796Z</time>
      </trkpt>
      <trkpt lat="43.55697" lon="5.52928">
        <ele>461.05776</ele>
        <time>2022-02-26T12:41:57.175Z</time>
      </trkpt>
      <trkpt lat="43.55681" lon="5.52881">
        <ele>461.358416</ele>
        <time>2022-02-26T12:42:10.760Z</time>
      </trkpt>
      <trkpt lat="43.55666" lon="5.52779">
        <ele>461.609625</ele>
        <time>2022-02-26T12:42:37.412Z</time>
      </trkpt>
      <trkpt lat="43.55647" lon="5.52687">
        <ele>461.842018</ele>
        <time>2022-02-26T12:42:59.515Z</time>
      </trkpt>
      <trkpt lat="43.55632" lon="5.52614">
        <ele>461.084469</ele>
        <time>2022-02-26T12:43:15.896Z</time>
      </trkpt>
      <trkpt lat="43.55612" lon="5.52556">
        <ele>460.207693</ele>
        <time>2022-02-26T12:43:29.191Z</time>
      </trkpt>
      <trkpt lat="43.55585" lon="5.52515">
        <ele>459.464151</ele>
        <time>2022-02-26T12:43:40.054Z</time>
      </trkpt>
      <trkpt lat="43.55576" lon="5.52429">
        <ele>457.950877</ele>
        <time>2022-02-26T12:43:56.603Z</time>
      </trkpt>
      <trkpt lat="43.55532" lon="5.52332">
        <ele>454.315192</ele>
        <time>2022-02-26T12:44:16.959Z</time>
      </trkpt>
      <trkpt lat="43.55525" lon="5.52261">
        <ele>452.052749</ele>
        <time>2022-02-26T12:44:29.363Z</time>
      </trkpt>
      <trkpt lat="43.55504" lon="5.52224">
        <ele>450.549032</ele>
        <time>2022-02-26T12:44:37.557Z</time>
      </trkpt>
      <trkpt lat="43.55484" lon="5.5216">
        <ele>448.224385</ele>
        <time>2022-02-26T12:44:49.729Z</time>
      </trkpt>
      <trkpt lat="43.55451" lon="5.52087">
        <ele>445.361137</ele>
        <time>2022-02-26T12:45:04.854Z</time>
      </trkpt>
      <trkpt lat="43.55424" lon="5.52073">
        <ele>444.034453</ele>
        <time>2022-02-26T12:45:11.915Z</time>
      </trkpt>
      <trkpt lat="43.55412" lon="5.52055">
        <ele>443.214641</ele>
        <time>2022-02-26T12:45:16.315Z</time>
      </trkpt>
      <trkpt lat="43.55364" lon="5.51963">
        <ele>440.674568</ele>
        <time>2022-02-26T12:45:37.083Z</time>
      </trkpt>
      <trkpt lat="43.55351" lon="5.51912">
        <ele>439.642838</ele>
        <time>2022-02-26T12:45:47.284Z</time>
      </trkpt>
      <trkpt lat="43.55335" lon="5.51869">
        <ele>438.71919</ele>
        <time>2022-02-26T12:45:56.810Z</time>
      </trkpt>
      <trkpt lat="43.55334" lon="5.51811">
        <ele>437.628185</ele>
        <time>2022-02-26T12:46:08.574Z</time>
      </trkpt>
      <trkpt lat="43.55319" lon="5.51764">
        <ele>437.616374</ele>
        <time>2022-02-26T12:46:19.802Z</time>
      </trkpt>
      <trkpt lat="43.55317" lon="5.51755">
        <ele>437.619532</ele>
        <time>2022-02-26T12:46:21.371Z</time>
      </trkpt>
      <trkpt lat="43.55317" lon="5.51744">
        <ele>437.623565</ele>
        <time>2022-02-26T12:46:25.280Z</time>
      </trkpt>
      <trkpt lat="43.55322" lon="5.51723">
        <ele>437.631342</ele>
        <time>2022-02-26T12:46:30.489Z</time>
      </trkpt>
      <trkpt lat="43.55357" lon="5.51671">
        <ele>437.656352</ele>
        <time>2022-02-26T12:46:47.546Z</time>
      </trkpt>
      <trkpt lat="43.55382" lon="5.51617">
        <ele>437.678703</ele>
        <time>2022-02-26T12:47:04.117Z</time>
      </trkpt>
      <trkpt lat="43.55407" lon="5.51526">
        <ele>437.61952</ele>
        <time>2022-02-26T12:47:28.926Z</time>
      </trkpt>
      <trkpt lat="43.554" lon="5.51503">
        <ele>437.597351</ele>
        <time>2022-02-26T12:47:35.456Z</time>
      </trkpt>
      <trkpt lat="43.55391" lon="5.51478">
        <ele>437.572767</ele>
        <time>2022-02-26T12:47:41.713Z</time>
      </trkpt>
      <trkpt lat="43.55369" lon="5.51367">
        <ele>437.472175</ele>
        <time>2022-02-26T12:48:07.024Z</time>
      </trkpt>
      <trkpt lat="43.55368" lon="5.51316">
        <ele>437.026074</ele>
        <time>2022-02-26T12:48:17.686Z</time>
      </trkpt>
      <trkpt lat="43.55358" lon="5.51284">
        <ele>436.714941</ele>
        <time>2022-02-26T12:48:24.458Z</time>
      </trkpt>
      <trkpt lat="43.55355" lon="5.51241">
        <ele>436.315874</ele>
        <time>2022-02-26T12:48:33.408Z</time>
      </trkpt>
      <trkpt lat="43.55349" lon="5.51229">
        <ele>436.175477</ele>
        <time>2022-02-26T12:48:36.572Z</time>
      </trkpt>
      <trkpt lat="43.55342" lon="5.51183">
        <ele>435.742583</ele>
        <time>2022-02-26T12:48:46.461Z</time>
      </trkpt>
      <trkpt lat="43.55348" lon="5.51147">
        <ele>435.400934</ele>
        <time>2022-02-26T12:48:54.194Z</time>
      </trkpt>
      <trkpt lat="43.5535" lon="5.51067">
        <ele>434.468341</ele>
        <time>2022-02-26T12:49:10.565Z</time>
      </trkpt>
      <trkpt lat="43.55349" lon="5.51026">
        <ele>433.957704</ele>
        <time>2022-02-26T12:49:18.673Z</time>
      </trkpt>
      <trkpt lat="43.55342" lon="5.50986">
        <ele>433.438713</ele>
        <time>2022-02-26T12:49:27.001Z</time>
      </trkpt>
      <trkpt lat="43.55336" lon="5.50953">
        <ele>433.009567</ele>
        <time>2022-02-26T12:49:33.837Z</time>
      </trkpt>
      <trkpt lat="43.55328" lon="5.50916">
        <ele>432.510331</ele>
        <time>2022-02-26T12:49:41.731Z</time>
      </trkpt>
      <trkpt lat="43.55337" lon="5.50884">
        <ele>432.070783</ele>
        <time>2022-02-26T12:49:48.581Z</time>
      </trkpt>
      <trkpt lat="43.55343" lon="5.5084">
        <ele>431.379677</ele>
        <time>2022-02-26T12:49:57.475Z</time>
      </trkpt>
      <trkpt lat="43.55368" lon="5.5076">
        <ele>430.028159</ele>
        <time>2022-02-26T12:50:14.245Z</time>
      </trkpt>
      <trkpt lat="43.55385" lon="5.50729">
        <ele>429.418322</ele>
        <time>2022-02-26T12:50:21.798Z</time>
      </trkpt>
      <trkpt lat="43.55401" lon="5.50676">
        <ele>428.508828</ele>
        <time>2022-02-26T12:50:33.231Z</time>
      </trkpt>
      <trkpt lat="43.55412" lon="5.50607">
        <ele>427.75302</ele>
        <time>2022-02-26T12:50:47.581Z</time>
      </trkpt>
      <trkpt lat="43.55416" lon="5.50601">
        <ele>427.682233</ele>
        <time>2022-02-26T12:50:49.173Z</time>
      </trkpt>
      <trkpt lat="43.55426" lon="5.50587">
        <ele>427.513967</ele>
        <time>2022-02-26T12:50:53.340Z</time>
      </trkpt>
      <trkpt lat="43.55452" lon="5.50551">
        <ele>427.087634</ele>
        <time>2022-02-26T12:51:03.797Z</time>
      </trkpt>
      <trkpt lat="43.5547" lon="5.50528">
        <ele>426.793559</ele>
        <time>2022-02-26T12:51:10.979Z</time>
      </trkpt>
      <trkpt lat="43.55475" lon="5.50522">
        <ele>426.726162</ele>
        <time>2022-02-26T12:51:12.831Z</time>
      </trkpt>
      <trkpt lat="43.55506" lon="5.50487">
        <ele>426.245555</ele>
        <time>2022-02-26T12:51:24.927Z</time>
      </trkpt>
      <trkpt lat="43.55542" lon="5.5049">
        <ele>425.958035</ele>
        <time>2022-02-26T12:51:35.601Z</time>
      </trkpt>
      <trkpt lat="43.55568" lon="5.50474">
        <ele>425.822622</ele>
        <time>2022-02-26T12:51:44.238Z</time>
      </trkpt>
      <trkpt lat="43.55588" lon="5.50421">
        <ele>425.615645</ele>
        <time>2022-02-26T12:51:57.634Z</time>
      </trkpt>
      <trkpt lat="43.55605" lon="5.50396">
        <ele>425.494339</ele>
        <time>2022-02-26T12:52:05.455Z</time>
      </trkpt>
      <trkpt lat="43.55639" lon="5.50325">
        <ele>425.200352</ele>
        <time>2022-02-26T12:52:24.138Z</time>
      </trkpt>
      <trkpt lat="43.55644" lon="5.503">
        <ele>425.136084</ele>
        <time>2022-02-26T12:52:29.791Z</time>
      </trkpt>
      <trkpt lat="43.55636" lon="5.50231">
        <ele>424.975208</ele>
        <time>2022-02-26T12:52:44.945Z</time>
      </trkpt>
      <trkpt lat="43.5564" lon="5.50209">
        <ele>424.921687</ele>
        <time>2022-02-26T12:52:49.980Z</time>
      </trkpt>
      <trkpt lat="43.5567" lon="5.50122">
        <ele>424.699545</ele>
        <time>2022-02-26T12:53:11.247Z</time>
      </trkpt>
      <trkpt lat="43.55689" lon="5.50069">
        <ele>424.798045</ele>
        <time>2022-02-26T12:53:25.139Z</time>
      </trkpt>
      <trkpt lat="43.55726" lon="5.50033">
        <ele>425.337405</ele>
        <time>2022-02-26T12:53:41.192Z</time>
      </trkpt>
      <trkpt lat="43.55733" lon="5.50008">
        <ele>425.571254</ele>
        <time>2022-02-26T12:53:48.468Z</time>
      </trkpt>
      <trkpt lat="43.55737" lon="5.49999">
        <ele>425.659825</ele>
        <time>2022-02-26T12:53:51.087Z</time>
      </trkpt>
      <trkpt lat="43.55747" lon="5.49967">
        <ele>425.963061</ele>
        <time>2022-02-26T12:54:01.100Z</time>
      </trkpt>
      <trkpt lat="43.55755" lon="5.49951">
        <ele>426.131148</ele>
        <time>2022-02-26T12:54:06.474Z</time>
      </trkpt>
      <trkpt lat="43.55789" lon="5.49941">
        <ele>426.541807</ele>
        <time>2022-02-26T12:54:20.434Z</time>
      </trkpt>
      <trkpt lat="43.55816" lon="5.49915">
        <ele>426.998737</ele>
        <time>2022-02-26T12:54:34.256Z</time>
      </trkpt>
      <trkpt lat="43.55831" lon="5.49913">
        <ele>427.254325</ele>
        <time>2022-02-26T12:54:41.070Z</time>
      </trkpt>
      <trkpt lat="43.55892" lon="5.49907">
        <ele>428.24455</ele>
        <time>2022-02-26T12:55:07.146Z</time>
      </trkpt>
      <trkpt lat="43.55906" lon="5.4992">
        <ele>428.519054</ele>
        <time>2022-02-26T12:55:14.095Z</time>
      </trkpt>
      <trkpt lat="43.55925" lon="5.49928">
        <ele>428.836601</ele>
        <time>2022-02-26T12:55:21.986Z</time>
      </trkpt>
      <trkpt lat="43.55985" lon="5.49938">
        <ele>429.687356</ele>
        <time>2022-02-26T12:55:44.342Z</time>
      </trkpt>
      <trkpt lat="43.56072" lon="5.49929">
        <ele>429.542593</ele>
        <time>2022-02-26T12:56:12.754Z</time>
      </trkpt>
      <trkpt lat="43.56089" lon="5.49923">
        <ele>429.51353</ele>
        <time>2022-02-26T12:56:18.071Z</time>
      </trkpt>
      <trkpt lat="43.56113" lon="5.49908">
        <ele>429.469729</ele>
        <time>2022-02-26T12:56:26.005Z</time>
      </trkpt>
      <trkpt lat="43.5615" lon="5.49864">
        <ele>429.335607</ele>
        <time>2022-02-26T12:56:40.455Z</time>
      </trkpt>
      <trkpt lat="43.56174" lon="5.49855">
        <ele>429.127183</ele>
        <time>2022-02-26T12:56:47.757Z</time>
      </trkpt>
      <trkpt lat="43.56231" lon="5.49803">
        <ele>428.56248</ele>
        <time>2022-02-26T12:57:07.469Z</time>
      </trkpt>
      <trkpt lat="43.56239" lon="5.49773">
        <ele>428.37001</ele>
        <time>2022-02-26T12:57:14.327Z</time>
      </trkpt>
      <trkpt lat="43.56266" lon="5.49715">
        <ele>427.954548</ele>
        <time>2022-02-26T12:57:29.359Z</time>
      </trkpt>
      <trkpt lat="43.56288" lon="5.49634">
        <ele>427.509482</ele>
        <time>2022-02-26T12:57:48.556Z</time>
      </trkpt>
      <trkpt lat="43.56299" lon="5.4961">
        <ele>427.365526</ele>
        <time>2022-02-26T12:57:54.921Z</time>
      </trkpt>
      <trkpt lat="43.56343" lon="5.49607">
        <ele>427.062932</ele>
        <time>2022-02-26T12:58:08.455Z</time>
      </trkpt>
      <trkpt lat="43.56477" lon="5.49559">
        <ele>425.0395</ele>
        <time>2022-02-26T12:58:48.564Z</time>
      </trkpt>
      <trkpt lat="43.56501" lon="5.49554">
        <ele>424.565981</ele>
        <time>2022-02-26T12:58:55.076Z</time>
      </trkpt>
      <trkpt lat="43.56526" lon="5.49566">
        <ele>424.024834</ele>
        <time>2022-02-26T12:59:02.290Z</time>
      </trkpt>
      <trkpt lat="43.56543" lon="5.49573">
        <ele>423.686539</ele>
        <time>2022-02-26T12:59:06.814Z</time>
      </trkpt>
      <trkpt lat="43.56547" lon="5.49575">
        <ele>423.600632</ele>
        <time>2022-02-26T12:59:07.896Z</time>
      </trkpt>
      <trkpt lat="43.56567" lon="5.49584">
        <ele>423.167151</ele>
        <time>2022-02-26T12:59:13.627Z</time>
      </trkpt>
      <trkpt lat="43.5657" lon="5.49586">
        <ele>423.105499</ele>
        <time>2022-02-26T12:59:14.428Z</time>
      </trkpt>
      <trkpt lat="43.56557" lon="5.49615">
        <ele>422.108158</ele>
        <time>2022-02-26T12:59:20.731Z</time>
      </trkpt>
      <trkpt lat="43.56548" lon="5.49641">
        <ele>421.203928</ele>
        <time>2022-02-26T12:59:26.065Z</time>
      </trkpt>
      <trkpt lat="43.56527" lon="5.49675">
        <ele>419.831127</ele>
        <time>2022-02-26T12:59:34.090Z</time>
      </trkpt>
      <trkpt lat="43.56502" lon="5.49673">
        <ele>418.765969</ele>
        <time>2022-02-26T12:59:40.201Z</time>
      </trkpt>
      <trkpt lat="43.56499" lon="5.49663">
        <ele>418.431326</ele>
        <time>2022-02-26T12:59:42.117Z</time>
      </trkpt>
      <trkpt lat="43.56477" lon="5.49649">
        <ele>417.400059</ele>
        <time>2022-02-26T12:59:47.901Z</time>
      </trkpt>
      <trkpt lat="43.56456" lon="5.49678">
        <ele>416.144215</ele>
        <time>2022-02-26T12:59:55.023Z</time>
      </trkpt>
      <trkpt lat="43.56441" lon="5.4972">
        <ele>414.450727</ele>
        <time>2022-02-26T13:00:03.294Z</time>
      </trkpt>
      <trkpt lat="43.56446" lon="5.49745">
        <ele>413.390339</ele>
        <time>2022-02-26T13:00:07.684Z</time>
      </trkpt>
      <trkpt lat="43.56475" lon="5.49796">
        <ele>410.664144</ele>
        <time>2022-02-26T13:00:18.781Z</time>
      </trkpt>
      <trkpt lat="43.56478" lon="5.49838">
        <ele>408.903619</ele>
        <time>2022-02-26T13:00:25.840Z</time>
      </trkpt>
      <trkpt lat="43.56458" lon="5.49885">
        <ele>406.623438</ele>
        <time>2022-02-26T13:00:34.960Z</time>
      </trkpt>
      <trkpt lat="43.56427" lon="5.49921">
        <ele>404.267102</ele>
        <time>2022-02-26T13:00:44.541Z</time>
      </trkpt>
      <trkpt lat="43.56417" lon="5.49952">
        <ele>402.917061</ele>
        <time>2022-02-26T13:00:50.176Z</time>
      </trkpt>
      <trkpt lat="43.56423" lon="5.49978">
        <ele>401.801214</ele>
        <time>2022-02-26T13:00:54.831Z</time>
      </trkpt>
      <trkpt lat="43.5648" lon="5.50011">
        <ele>398.310383</ele>
        <time>2022-02-26T13:01:09.534Z</time>
      </trkpt>
      <trkpt lat="43.56508" lon="5.50034">
        <ele>396.507644</ele>
        <time>2022-02-26T13:01:17.274Z</time>
      </trkpt>
      <trkpt lat="43.56539" lon="5.50025">
        <ele>394.812102</ele>
        <time>2022-02-26T13:01:24.842Z</time>
      </trkpt>
      <trkpt lat="43.56568" lon="5.50029">
        <ele>393.702926</ele>
        <time>2022-02-26T13:01:32.218Z</time>
      </trkpt>
      <trkpt lat="43.56592" lon="5.50044">
        <ele>392.763313</ele>
        <time>2022-02-26T13:01:38.464Z</time>
      </trkpt>
      <trkpt lat="43.56675" lon="5.50063">
        <ele>389.651157</ele>
        <time>2022-02-26T13:01:59.951Z</time>
      </trkpt>
      <trkpt lat="43.56677" lon="5.50062">
        <ele>389.553275</ele>
        <time>2022-02-26T13:02:00.565Z</time>
      </trkpt>
      <trkpt lat="43.56696" lon="5.50053">
        <ele>388.817415</ele>
        <time>2022-02-26T13:02:05.809Z</time>
      </trkpt>
      <trkpt lat="43.56724" lon="5.50052">
        <ele>387.949464</ele>
        <time>2022-02-26T13:02:13.232Z</time>
      </trkpt>
      <trkpt lat="43.56741" lon="5.50049">
        <ele>387.554807</ele>
        <time>2022-02-26T13:02:17.744Z</time>
      </trkpt>
      <trkpt lat="43.56757" lon="5.50061">
        <ele>387.130913</ele>
        <time>2022-02-26T13:02:22.459Z</time>
      </trkpt>
      <trkpt lat="43.56819" lon="5.5008">
        <ele>385.62431</ele>
        <time>2022-02-26T13:02:39.627Z</time>
      </trkpt>
      <trkpt lat="43.56884" lon="5.50069">
        <ele>384.071865</ele>
        <time>2022-02-26T13:02:57.626Z</time>
      </trkpt>
      <trkpt lat="43.56934" lon="5.5007">
        <ele>382.676977</ele>
        <time>2022-02-26T13:03:11.212Z</time>
      </trkpt>
      <trkpt lat="43.56991" lon="5.50081">
        <ele>381.030941</ele>
        <time>2022-02-26T13:03:26.644Z</time>
      </trkpt>
      <trkpt lat="43.57005" lon="5.50081">
        <ele>380.638185</ele>
        <time>2022-02-26T13:03:30.230Z</time>
      </trkpt>
      <trkpt lat="43.57013" lon="5.50081">
        <ele>380.42054</ele>
        <time>2022-02-26T13:03:32.130Z</time>
      </trkpt>
      <trkpt lat="43.57028" lon="5.50066">
        <ele>379.891106</ele>
        <time>2022-02-26T13:03:37.023Z</time>
      </trkpt>
      <trkpt lat="43.57055" lon="5.50065">
        <ele>379.11648</ele>
        <time>2022-02-26T13:03:43.941Z</time>
      </trkpt>
      <trkpt lat="43.57094" lon="5.50042">
        <ele>377.910642</ele>
        <time>2022-02-26T13:03:54.533Z</time>
      </trkpt>
      <trkpt lat="43.57126" lon="5.50007">
        <ele>376.719116</ele>
        <time>2022-02-26T13:04:04.923Z</time>
      </trkpt>
      <trkpt lat="43.5714" lon="5.50037">
        <ele>375.968923</ele>
        <time>2022-02-26T13:04:11.482Z</time>
      </trkpt>
      <trkpt lat="43.57146" lon="5.50048">
        <ele>375.699711</ele>
        <time>2022-02-26T13:04:13.888Z</time>
      </trkpt>
      <trkpt lat="43.5716" lon="5.50075">
        <ele>374.990859</ele>
        <time>2022-02-26T13:04:20.317Z</time>
      </trkpt>
      <trkpt lat="43.5738" lon="5.50344">
        <ele>369.365191</ele>
        <time>2022-02-26T13:05:43.158Z</time>
      </trkpt>
      <trkpt lat="43.57444" lon="5.50378">
        <ele>367.897033</ele>
        <time>2022-02-26T13:06:01.731Z</time>
      </trkpt>
      <trkpt lat="43.57489" lon="5.50417">
        <ele>366.638588</ele>
        <time>2022-02-26T13:06:15.768Z</time>
      </trkpt>
      <trkpt lat="43.5753" lon="5.50311">
        <ele>363.902913</ele>
        <time>2022-02-26T13:06:29.064Z</time>
      </trkpt>
      <trkpt lat="43.5756" lon="5.50268">
        <ele>362.563028</ele>
        <time>2022-02-26T13:06:35.512Z</time>
      </trkpt>
      <trkpt lat="43.57843" lon="5.49999">
        <ele>353.055623</ele>
        <time>2022-02-26T13:07:29.149Z</time>
      </trkpt>
      <trkpt lat="43.57848" lon="5.49986">
        <ele>352.790207</ele>
        <time>2022-02-26T13:07:30.867Z</time>
      </trkpt>
      <trkpt lat="43.57847" lon="5.49934">
        <ele>351.832638</ele>
        <time>2022-02-26T13:07:37.064Z</time>
      </trkpt>
      <trkpt lat="43.57855" lon="5.49892">
        <ele>351.292067</ele>
        <time>2022-02-26T13:07:42.236Z</time>
      </trkpt>
      <trkpt lat="43.57884" lon="5.49838">
        <ele>350.561375</ele>
        <time>2022-02-26T13:07:50.345Z</time>
      </trkpt>
      <trkpt lat="43.57921" lon="5.49792">
        <ele>349.8131</ele>
        <time>2022-02-26T13:07:58.915Z</time>
      </trkpt>
      <trkpt lat="43.57942" lon="5.49751">
        <ele>349.258191</ele>
        <time>2022-02-26T13:08:05.346Z</time>
      </trkpt>
      <trkpt lat="43.5796" lon="5.49774">
        <ele>348.898981</ele>
        <time>2022-02-26T13:08:09.763Z</time>
      </trkpt>
      <trkpt lat="43.5802" lon="5.49854">
        <ele>347.9804</ele>
        <time>2022-02-26T13:08:24.422Z</time>
      </trkpt>
      <trkpt lat="43.58109" lon="5.4992">
        <ele>346.915187</ele>
        <time>2022-02-26T13:08:42.115Z</time>
      </trkpt>
      <trkpt lat="43.58169" lon="5.49965">
        <ele>346.534127</ele>
        <time>2022-02-26T13:08:55.326Z</time>
      </trkpt>
      <trkpt lat="43.58173" lon="5.49967">
        <ele>346.50947</ele>
        <time>2022-02-26T13:08:56.107Z</time>
      </trkpt>
      <trkpt lat="43.58201" lon="5.49994">
        <ele>346.318898</ele>
        <time>2022-02-26T13:09:02.649Z</time>
      </trkpt>
      <trkpt lat="43.58209" lon="5.50002">
        <ele>346.263697</ele>
        <time>2022-02-26T13:09:05.164Z</time>
      </trkpt>
      <trkpt lat="43.58248" lon="5.50049">
        <ele>345.975837</ele>
        <time>2022-02-26T13:09:14.749Z</time>
      </trkpt>
      <trkpt lat="43.58263" lon="5.50073">
        <ele>345.832876</ele>
        <time>2022-02-26T13:09:19.201Z</time>
      </trkpt>
      <trkpt lat="43.58263" lon="5.50073">
        <ele>345.832876</ele>
        <time>2022-02-26T13:09:19.207Z</time>
      </trkpt>
      <trkpt lat="43.58272" lon="5.50087">
        <ele>345.751967</ele>
        <time>2022-02-26T13:09:21.468Z</time>
      </trkpt>
      <trkpt lat="43.58291" lon="5.50121">
        <ele>345.55738</ele>
        <time>2022-02-26T13:09:27.340Z</time>
      </trkpt>
      <trkpt lat="43.5831" lon="5.50174">
        <ele>345.294782</ele>
        <time>2022-02-26T13:09:35.623Z</time>
      </trkpt>
      <trkpt lat="43.58329" lon="5.50227">
        <ele>345.031911</ele>
        <time>2022-02-26T13:09:43.656Z</time>
      </trkpt>
      <trkpt lat="43.5834" lon="5.5025">
        <ele>344.904852</ele>
        <time>2022-02-26T13:09:47.295Z</time>
      </trkpt>
      <trkpt lat="43.58399" lon="5.50247">
        <ele>344.38275</ele>
        <time>2022-02-26T13:09:57.816Z</time>
      </trkpt>
      <trkpt lat="43.58436" lon="5.50219">
        <ele>343.986595</ele>
        <time>2022-02-26T13:10:05.460Z</time>
      </trkpt>
      <trkpt lat="43.58475" lon="5.50201">
        <ele>343.59848</ele>
        <time>2022-02-26T13:10:13.025Z</time>
      </trkpt>
      <trkpt lat="43.58507" lon="5.50148">
        <ele>343.144739</ele>
        <time>2022-02-26T13:10:21.872Z</time>
      </trkpt>
      <trkpt lat="43.58522" lon="5.50114">
        <ele>342.997256</ele>
        <time>2022-02-26T13:10:26.951Z</time>
      </trkpt>
      <trkpt lat="43.58533" lon="5.50036">
        <ele>342.702876</ele>
        <time>2022-02-26T13:10:36.872Z</time>
      </trkpt>
      <trkpt lat="43.58541" lon="5.50021">
        <ele>342.634871</ele>
        <time>2022-02-26T13:10:39.286Z</time>
      </trkpt>
      <trkpt lat="43.58579" lon="5.50005">
        <ele>342.43078</ele>
        <time>2022-02-26T13:10:47.120Z</time>
      </trkpt>
      <trkpt lat="43.58597" lon="5.50002">
        <ele>342.336673</ele>
        <time>2022-02-26T13:10:51.388Z</time>
      </trkpt>
      <trkpt lat="43.58604" lon="5.49962">
        <ele>342.330532</ele>
        <time>2022-02-26T13:10:59.532Z</time>
      </trkpt>
      <trkpt lat="43.58607" lon="5.4996">
        <ele>342.35452</ele>
        <time>2022-02-26T13:10:59.958Z</time>
      </trkpt>
      <trkpt lat="43.58616" lon="5.49959">
        <ele>342.421692</ele>
        <time>2022-02-26T13:11:01.982Z</time>
      </trkpt>
      <trkpt lat="43.58633" lon="5.49956">
        <ele>342.552632</ele>
        <time>2022-02-26T13:11:06.241Z</time>
      </trkpt>
      <trkpt lat="43.58635" lon="5.49955">
        <ele>342.565809</ele>
        <time>2022-02-26T13:11:08.076Z</time>
      </trkpt>
      <trkpt lat="43.588" lon="5.49878">
        <ele>343.63847</ele>
        <time>2022-02-26T13:11:50.279Z</time>
      </trkpt>
      <trkpt lat="43.58805" lon="5.49865">
        <ele>343.642362</ele>
        <time>2022-02-26T13:11:53.231Z</time>
      </trkpt>
      <trkpt lat="43.58821" lon="5.49855">
        <ele>343.648878</ele>
        <time>2022-02-26T13:11:59.469Z</time>
      </trkpt>
      <trkpt lat="43.58825" lon="5.49825">
        <ele>343.657022</ele>
        <time>2022-02-26T13:12:06.257Z</time>
      </trkpt>
      <trkpt lat="43.58835" lon="5.49712">
        <ele>343.686867</ele>
        <time>2022-02-26T13:12:31.536Z</time>
      </trkpt>
      <trkpt lat="43.58916" lon="5.49702">
        <ele>345.346313</ele>
        <time>2022-02-26T13:12:59.221Z</time>
      </trkpt>
      <trkpt lat="43.58992" lon="5.49696">
        <ele>347.09341</ele>
        <time>2022-02-26T13:13:34.737Z</time>
      </trkpt>
      <trkpt lat="43.5909" lon="5.49688">
        <ele>350.635346</ele>
        <time>2022-02-26T13:14:29.671Z</time>
      </trkpt>
      <trkpt lat="43.59141" lon="5.49681">
        <ele>352.809735</ele>
        <time>2022-02-26T13:14:57.302Z</time>
      </trkpt>
      <trkpt lat="43.59213" lon="5.49678">
        <ele>355.832629</ele>
        <time>2022-02-26T13:15:34.193Z</time>
      </trkpt>
      <trkpt lat="43.59204" lon="5.49652">
        <ele>356.662595</ele>
        <time>2022-02-26T13:15:43.709Z</time>
      </trkpt>
      <trkpt lat="43.59194" lon="5.49601">
        <ele>358.206338</ele>
        <time>2022-02-26T13:16:01.870Z</time>
      </trkpt>
      <trkpt lat="43.59193" lon="5.49598">
        <ele>358.300068</ele>
        <time>2022-02-26T13:16:03.592Z</time>
      </trkpt>
      <trkpt lat="43.59177" lon="5.49566">
        <ele>359.440382</ele>
        <time>2022-02-26T13:16:18.213Z</time>
      </trkpt>
      <trkpt lat="43.59172" lon="5.49546">
        <ele>360.051578</ele>
        <time>2022-02-26T13:16:26.618Z</time>
      </trkpt>
      <trkpt lat="43.59169" lon="5.49488">
        <ele>361.750389</ele>
        <time>2022-02-26T13:16:48.416Z</time>
      </trkpt>
      <trkpt lat="43.59186" lon="5.4942">
        <ele>364.294476</ele>
        <time>2022-02-26T13:17:16.747Z</time>
      </trkpt>
      <trkpt lat="43.59191" lon="5.49399">
        <ele>365.198721</ele>
        <time>2022-02-26T13:17:26.782Z</time>
      </trkpt>
      <trkpt lat="43.59193" lon="5.49397">
        <ele>365.320744</ele>
        <time>2022-02-26T13:17:27.813Z</time>
      </trkpt>
      <trkpt lat="43.592" lon="5.49389">
        <ele>365.822594</ele>
        <time>2022-02-26T13:17:32.812Z</time>
      </trkpt>
      <trkpt lat="43.59217" lon="5.49367">
        <ele>367.11568</ele>
        <time>2022-02-26T13:17:46.814Z</time>
      </trkpt>
      <trkpt lat="43.59243" lon="5.49377">
        <ele>368.606448</ele>
        <time>2022-02-26T13:18:02.152Z</time>
      </trkpt>
      <trkpt lat="43.59254" lon="5.49378">
        <ele>369.231943</ele>
        <time>2022-02-26T13:18:09.450Z</time>
      </trkpt>
      <trkpt lat="43.59254" lon="5.49365">
        <ele>369.770397</ele>
        <time>2022-02-26T13:18:14.781Z</time>
      </trkpt>
      <trkpt lat="43.59256" lon="5.49361">
        <ele>369.947449</ele>
        <time>2022-02-26T13:18:16.361Z</time>
      </trkpt>
      <trkpt lat="43.59259" lon="5.49355">
        <ele>370.223068</ele>
        <time>2022-02-26T13:18:20.300Z</time>
      </trkpt>
      <trkpt lat="43.5928" lon="5.49332">
        <ele>371.721029</ele>
        <time>2022-02-26T13:18:37.798Z</time>
      </trkpt>
      <trkpt lat="43.59309" lon="5.49316">
        <ele>373.371088</ele>
        <time>2022-02-26T13:18:59.237Z</time>
      </trkpt>
      <trkpt lat="43.5933" lon="5.49311">
        <ele>374.427038</ele>
        <time>2022-02-26T13:19:12.782Z</time>
      </trkpt>
      <trkpt lat="43.59347" lon="5.49327">
        <ele>375.412623</ele>
        <time>2022-02-26T13:19:24.187Z</time>
      </trkpt>
      <trkpt lat="43.5936" lon="5.49367">
        <ele>376.933522</ele>
        <time>2022-02-26T13:19:43.176Z</time>
      </trkpt>
      <trkpt lat="43.59366" lon="5.49374">
        <ele>377.292815</ele>
        <time>2022-02-26T13:19:46.704Z</time>
      </trkpt>
      <trkpt lat="43.59395" lon="5.49379">
        <ele>378.675517</ele>
        <time>2022-02-26T13:20:02.845Z</time>
      </trkpt>
      <trkpt lat="43.59425" lon="5.49383">
        <ele>380.123889</ele>
        <time>2022-02-26T13:20:17.870Z</time>
      </trkpt>
      <trkpt lat="43.59427" lon="5.49372">
        <ele>380.516028</ele>
        <time>2022-02-26T13:20:20.424Z</time>
      </trkpt>
      <trkpt lat="43.59471" lon="5.49249">
        <ele>381.403577</ele>
        <time>2022-02-26T13:20:56.927Z</time>
      </trkpt>
      <trkpt lat="43.59486" lon="5.49227">
        <ele>381.403577</ele>
        <time>2022-02-26T13:21:02.915Z</time>
      </trkpt>
      <trkpt lat="43.59514" lon="5.49206">
        <ele>381.403577</ele>
        <time>2022-02-26T13:21:11.226Z</time>
      </trkpt>
      <trkpt lat="43.59525" lon="5.49206">
        <ele>381.403577</ele>
        <time>2022-02-26T13:21:13.613Z</time>
      </trkpt>
      <trkpt lat="43.59528" lon="5.49209">
        <ele>381.403577</ele>
        <time>2022-02-26T13:21:15.225Z</time>
      </trkpt>
      <trkpt lat="43.59526" lon="5.49218">
        <ele>381.403577</ele>
        <time>2022-02-26T13:21:16.755Z</time>
      </trkpt>
      <trkpt lat="43.59523" lon="5.49229">
        <ele>381.403577</ele>
        <time>2022-02-26T13:21:18.653Z</time>
      </trkpt>
      <trkpt lat="43.59513" lon="5.4923">
        <ele>381.403577</ele>
        <time>2022-02-26T13:21:21.622Z</time>
      </trkpt>
      <trkpt lat="43.59508" lon="5.49238">
        <ele>381.403577</ele>
        <time>2022-02-26T13:21:23.894Z</time>
      </trkpt>
      <trkpt lat="43.59508" lon="5.49284">
        <ele>381.403577</ele>
        <time>2022-02-26T13:21:33.477Z</time>
      </trkpt>
      <trkpt lat="43.59514" lon="5.49292">
        <ele>381.403577</ele>
        <time>2022-02-26T13:21:36.509Z</time>
      </trkpt>
      <trkpt lat="43.59526" lon="5.49291">
        <ele>381.403577</ele>
        <time>2022-02-26T13:21:39.777Z</time>
      </trkpt>
    </trkseg>
  </trk>
</gpx>